Onweerkansen (GFS)

Untitled Document





Vliegweer

[Source: ADDS]
METAR
EBBR 210420Z 21014KT 9999 -RA NSC 19/13 Q1003 TEMPO 3500 RA =
EBBR 202320Z 2100/2206 20011KT CAVOK BECMG 2103/2105 20018G30KT PROB40 TEMPO 2105/2108 3600 RA SHRA BKN014 BECMG 2107/2109 27019G34KT BECMG 2116/2118 24013KT
TAF
EBBR 202320Z 2100/2206 20011KT CAVOK BECMG 2103/2105 20018G30KT PROB40 TEMPO 2105/2108 3600 RA SHRA BKN014 BECMG 2107/2109 27019G34KT BECMG 2116/2118 24013KT =

StormCell is een non profit organisatie zonder oogmerk tot sensatie